sensor_id;sensor_type;location;lat;lon;timestamp;pressure;altitude;pressure_sealevel;temperature;humidity
32486;BME280;18935;52.236;21.134;2022-08-19T00:01:27;99215.22;;;16.46;100.00
32486;BME280;18935;52.236;21.134;2022-08-19T00:03:54;99214.53;;;16.31;100.00
32486;BME280;18935;52.236;21.134;2022-08-19T00:06:19;99204.94;;;16.30;100.00
32486;BME280;18935;52.236;21.134;2022-08-19T00:08:45;99208.38;;;16.19;100.00
32486;BME280;18935;52.236;21.134;2022-08-19T00:11:10;99216.69;;;16.13;100.00
32486;BME280;18935;52.236;21.134;2022-08-19T00:13:36;99213.63;;;16.19;100.00
32486;BME280;18935;52.236;21.134;2022-08-19T00:16:03;99216.81;;;16.11;100.00
32486;BME280;18935;52.236;21.134;2022-08-19T00:18:28;99218.06;;;16.06;100.00
32486;BME280;18935;52.236;21.134;2022-08-19T00:20:54;99219.34;;;16.00;100.00
32486;BME280;18935;52.236;21.134;2022-08-19T00:23:19;99210.06;;;16.07;100.00
32486;BME280;18935;52.236;21.134;2022-08-19T00:25:45;99216.09;;;15.97;100.00
32486;BME280;18935;52.236;21.134;2022-08-19T00:28:10;99209.88;;;15.98;100.00
32486;BME280;18935;52.236;21.134;2022-08-19T00:30:36;99211.28;;;15.91;100.00
32486;BME280;18935;52.236;21.134;2022-08-19T00:33:02;99216.84;;;15.86;100.00
32486;BME280;18935;52.236;21.134;2022-08-19T00:35:27;99215.28;;;15.83;100.00
32486;BME280;18935;52.236;21.134;2022-08-19T00:37:53;99215.16;;;15.85;100.00
32486;BME280;18935;52.236;21.134;2022-08-19T00:40:19;99218.56;;;15.74;100.00
32486;BME280;18935;52.236;21.134;2022-08-19T00:42:45;99219.59;;;15.72;100.00
32486;BME280;18935;52.236;21.134;2022-08-19T00:45:14;99223.69;;;15.76;100.00
32486;BME280;18935;52.236;21.134;2022-08-19T00:47:42;99221.91;;;15.76;100.00
32486;BME280;18935;52.236;21.134;2022-08-19T00:50:08;99226.63;;;15.71;100.00
32486;BME280;18935;52.236;21.134;2022-08-19T00:52:37;99219.19;;;15.65;100.00
32486;BME280;18935;52.236;21.134;2022-08-19T00:55:07;99213.59;;;15.57;100.00
32486;BME280;18935;52.236;21.134;2022-08-19T00:57:38;99221.69;;;15.54;100.00
32486;BME280;18935;52.236;21.134;2022-08-19T01:00:11;99226.19;;;15.52;100.00
32486;BME280;18935;52.236;21.134;2022-08-19T01:02:38;99216.94;;;15.46;100.00
32486;BME280;18935;52.236;21.134;2022-08-19T01:05:07;99219.16;;;15.40;100.00
32486;BME280;18935;52.236;21.134;2022-08-19T01:07:34;99219.38;;;15.37;100.00
32486;BME280;18935;52.236;21.134;2022-08-19T01:09:59;99219.16;;;15.40;100.00
32486;BME280;18935;52.236;21.134;2022-08-19T01:12:25;99219.97;;;15.40;100.00
32486;BME280;18935;52.236;21.134;2022-08-19T01:14:51;99224.41;;;15.40;100.00
32486;BME280;18935;52.236;21.134;2022-08-19T01:17:17;99218.63;;;15.35;100.00
32486;BME280;18935;52.236;21.134;2022-08-19T01:19:45;99223.56;;;15.39;100.00
32486;BME280;18935;52.236;21.134;2022-08-19T01:22:25;99220.44;;;15.34;100.00
32486;BME280;18935;52.236;21.134;2022-08-19T01:24:52;99230.28;;;15.30;100.00
32486;BME280;18935;52.236;21.134;2022-08-19T01:27:17;99225.97;;;15.29;100.00
32486;BME280;18935;52.236;21.134;2022-08-19T01:29:43;99221.34;;;15.33;100.00
32486;BME280;18935;52.236;21.134;2022-08-19T01:32:12;99221.47;;;15.32;100.00
32486;BME280;18935;52.236;21.134;2022-08-19T01:34:39;99217.25;;;15.29;100.00
32486;BME280;18935;52.236;21.134;2022-08-19T01:37:10;99222.63;;;15.27;100.00
32486;BME280;18935;52.236;21.134;2022-08-19T01:39:37;99218.50;;;15.23;100.00
32486;BME280;18935;52.236;21.134;2022-08-19T01:42:03;99219.47;;;15.22;100.00
32486;BME280;18935;52.236;21.134;2022-08-19T01:44:29;99221.13;;;15.23;100.00
32486;BME280;18935;52.236;21.134;2022-08-19T01:46:54;99229.97;;;15.22;100.00
32486;BME280;18935;52.236;21.134;2022-08-19T01:49:22;99223.16;;;15.20;100.00
32486;BME280;18935;52.236;21.134;2022-08-19T01:51:48;99216.94;;;15.21;100.00
32486;BME280;18935;52.236;21.134;2022-08-19T01:54:15;99219.88;;;15.16;100.00
32486;BME280;18935;52.236;21.134;2022-08-19T01:56:41;99229.19;;;15.08;100.00
32486;BME280;18935;52.236;21.134;2022-08-19T01:59:11;99233.84;;;15.04;100.00
32486;BME280;18935;52.236;21.134;2022-08-19T02:01:37;99223.72;;;14.98;100.00
32486;BME280;18935;52.236;21.134;2022-08-19T02:04:02;99226.78;;;15.05;100.00
32486;BME280;18935;52.236;21.134;2022-08-19T02:06:28;99213.47;;;15.20;100.00
32486;BME280;18935;52.236;21.134;2022-08-19T02:08:54;99206.22;;;15.37;100.00
32486;BME280;18935;52.236;21.134;2022-08-19T02:11:28;99216.75;;;15.37;100.00
32486;BME280;18935;52.236;21.134;2022-08-19T02:13:57;99210.22;;;15.42;100.00
32486;BME280;18935;52.236;21.134;2022-08-19T02:16:23;99215.16;;;15.47;100.00
32486;BME280;18935;52.236;21.134;2022-08-19T02:18:49;99209.72;;;15.50;100.00
32486;BME280;18935;52.236;21.134;2022-08-19T02:21:16;99211.69;;;15.46;100.00
32486;BME280;18935;52.236;21.134;2022-08-19T02:23:42;99206.78;;;15.42;100.00
32486;BME280;18935;52.236;21.134;2022-08-19T02:26:08;99208.44;;;15.43;100.00
32486;BME280;18935;52.236;21.134;2022-08-19T02:28:33;99197.81;;;15.44;100.00
32486;BME280;18935;52.236;21.134;2022-08-19T02:30:59;99202.75;;;15.36;100.00
32486;BME280;18935;52.236;21.134;2022-08-19T02:33:26;99201.09;;;15.35;100.00
32486;BME280;18935;52.236;21.134;2022-08-19T02:35:51;99199.59;;;15.31;100.00
32486;BME280;18935;52.236;21.134;2022-08-19T02:38:16;99200.25;;;15.35;100.00
32486;BME280;18935;52.236;21.134;2022-08-19T02:41:00;99199.06;;;15.39;100.00
32486;BME280;18935;52.236;21.134;2022-08-19T02:43:26;99194.78;;;15.38;100.00
32486;BME280;18935;52.236;21.134;2022-08-19T02:45:52;99201.28;;;15.45;100.00
32486;BME280;18935;52.236;21.134;2022-08-19T02:48:19;99196.88;;;15.45;100.00
32486;BME280;18935;52.236;21.134;2022-08-19T02:50:46;99200.03;;;15.50;100.00
32486;BME280;18935;52.236;21.134;2022-08-19T02:53:11;99207.16;;;15.48;100.00
32486;BME280;18935;52.236;21.134;2022-08-19T02:55:43;99210.97;;;15.44;100.00
32486;BME280;18935;52.236;21.134;2022-08-19T02:58:09;99201.06;;;15.48;100.00
32486;BME280;18935;52.236;21.134;2022-08-19T03:00:34;99209.16;;;15.45;100.00
32486;BME280;18935;52.236;21.134;2022-08-19T03:02:59;99205.59;;;15.33;100.00
32486;BME280;18935;52.236;21.134;2022-08-19T03:05:25;99203.81;;;15.34;100.00
32486;BME280;18935;52.236;21.134;2022-08-19T03:07:50;99200.66;;;15.41;100.00
32486;BME280;18935;52.236;21.134;2022-08-19T03:10:16;99196.03;;;15.45;100.00
32486;BME280;18935;52.236;21.134;2022-08-19T03:12:41;99202.78;;;15.49;100.00
32486;BME280;18935;52.236;21.134;2022-08-19T03:15:07;99214.31;;;15.46;100.00
32486;BME280;18935;52.236;21.134;2022-08-19T03:17:33;99204.44;;;15.37;100.00
32486;BME280;18935;52.236;21.134;2022-08-19T03:19:59;99204.44;;;15.37;100.00
32486;BME280;18935;52.236;21.134;2022-08-19T03:22:25;99199.38;;;15.47;100.00
32486;BME280;18935;52.236;21.134;2022-08-19T03:24:50;99197.84;;;15.57;100.00
32486;BME280;18935;52.236;21.134;2022-08-19T03:27:15;99189.00;;;15.58;100.00
32486;BME280;18935;52.236;21.134;2022-08-19T03:29:42;99191.50;;;15.60;100.00
32486;BME280;18935;52.236;21.134;2022-08-19T03:32:08;99192.88;;;15.52;100.00
32486;BME280;18935;52.236;21.134;2022-08-19T03:34:36;99198.03;;;15.54;100.00
32486;BME280;18935;52.236;21.134;2022-08-19T03:37:08;99202.31;;;15.55;100.00
32486;BME280;18935;52.236;21.134;2022-08-19T03:39:36;99198.84;;;15.54;100.00
32486;BME280;18935;52.236;21.134;2022-08-19T03:42:02;99199.31;;;15.61;100.00
32486;BME280;18935;52.236;21.134;2022-08-19T03:44:28;99201.59;;;15.53;100.00
32486;BME280;18935;52.236;21.134;2022-08-19T03:46:57;99203.81;;;15.46;100.00
32486;BME280;18935;52.236;21.134;2022-08-19T03:49:24;99202.56;;;15.52;100.00
32486;BME280;18935;52.236;21.134;2022-08-19T03:51:50;99216.41;;;15.54;100.00
32486;BME280;18935;52.236;21.134;2022-08-19T03:54:18;99224.53;;;15.51;100.00
32486;BME280;18935;52.236;21.134;2022-08-19T03:56:47;99222.50;;;15.54;100.00
32486;BME280;18935;52.236;21.134;2022-08-19T03:59:16;99229.66;;;15.52;100.00
32486;BME280;18935;52.236;21.134;2022-08-19T04:01:42;99218.75;;;15.58;100.00
32486;BME280;18935;52.236;21.134;2022-08-19T04:04:08;99224.47;;;15.65;100.00
32486;BME280;18935;52.236;21.134;2022-08-19T04:06:35;99222.31;;;15.70;100.00
32486;BME280;18935;52.236;21.134;2022-08-19T04:09:04;99218.75;;;15.71;100.00
32486;BME280;18935;52.236;21.134;2022-08-19T04:11:34;99220.22;;;15.75;100.00
32486;BME280;18935;52.236;21.134;2022-08-19T04:14:00;99220.66;;;15.82;100.00
32486;BME280;18935;52.236;21.134;2022-08-19T04:16:27;99221.59;;;15.81;100.00
32486;BME280;18935;52.236;21.134;2022-08-19T04:18:55;99213.91;;;15.78;100.00
32486;BME280;18935;52.236;21.134;2022-08-19T04:21:23;99216.00;;;15.85;100.00
32486;BME280;18935;52.236;21.134;2022-08-19T04:23:50;99218.09;;;15.93;100.00
32486;BME280;18935;52.236;21.134;2022-08-19T04:26:31;99210.84;;;15.97;100.00
32486;BME280;18935;52.236;21.134;2022-08-19T04:29:01;99218.78;;;16.08;100.00
32486;BME280;18935;52.236;21.134;2022-08-19T04:31:29;99220.03;;;16.15;100.00
32486;BME280;18935;52.236;21.134;2022-08-19T04:33:59;99214.38;;;16.08;100.00
32486;BME280;18935;52.236;21.134;2022-08-19T04:36:28;99213.63;;;16.19;100.00
32486;BME280;18935;52.236;21.134;2022-08-19T04:38:58;99217.28;;;16.29;100.00
32486;BME280;18935;52.236;21.134;2022-08-19T04:41:24;99214.19;;;16.35;100.00
32486;BME280;18935;52.236;21.134;2022-08-19T04:44:09;99226.53;;;16.59;100.00
32486;BME280;18935;52.236;21.134;2022-08-19T04:46:34;99214.41;;;16.69;99.94
32486;BME280;18935;52.236;21.134;2022-08-19T04:49:01;99217.19;;;16.79;98.72
32486;BME280;18935;52.236;21.134;2022-08-19T04:51:27;99215.44;;;16.90;98.78
32486;BME280;18935;52.236;21.134;2022-08-19T04:53:52;99210.94;;;17.04;97.36
32486;BME280;18935;52.236;21.134;2022-08-19T04:56:19;99207.50;;;17.14;96.21
32486;BME280;18935;52.236;21.134;2022-08-19T04:58:46;99208.25;;;17.28;94.16
32486;BME280;18935;52.236;21.134;2022-08-19T05:01:18;99213.53;;;17.39;94.22
32486;BME280;18935;52.236;21.134;2022-08-19T05:03:45;99221.84;;;17.57;93.28
32486;BME280;18935;52.236;21.134;2022-08-19T05:06:13;99217.03;;;17.62;92.77
32486;BME280;18935;52.236;21.134;2022-08-19T05:08:40;99212.28;;;17.78;92.02
32486;BME280;18935;52.236;21.134;2022-08-19T05:11:28;99220.66;;;18.05;90.73
32486;BME280;18935;52.236;21.134;2022-08-19T05:13:55;99216.28;;;18.38;88.09
32486;BME280;18935;52.236;21.134;2022-08-19T05:16:22;99216.72;;;18.54;87.49
32486;BME280;18935;52.236;21.134;2022-08-19T05:18:48;99218.88;;;18.72;86.38
32486;BME280;18935;52.236;21.134;2022-08-19T05:21:32;99216.44;;;19.22;82.96
32486;BME280;18935;52.236;21.134;2022-08-19T05:24:18;99218.91;;;19.13;83.45
32486;BME280;18935;52.236;21.134;2022-08-19T05:26:47;99227.81;;;19.12;83.40
32486;BME280;18935;52.236;21.134;2022-08-19T05:29:18;99229.75;;;19.10;82.97
32486;BME280;18935;52.236;21.134;2022-08-19T05:31:45;99233.56;;;19.17;82.42
32486;BME280;18935;52.236;21.134;2022-08-19T05:34:10;99232.53;;;20.12;77.83
32486;BME280;18935;52.236;21.134;2022-08-19T05:36:39;99233.63;;;21.56;70.04
32486;BME280;18935;52.236;21.134;2022-08-19T05:39:06;99235.47;;;21.36;70.20
32486;BME280;18935;52.236;21.134;2022-08-19T05:41:32;99237.56;;;20.55;72.92
32486;BME280;18935;52.236;21.134;2022-08-19T05:44:00;99236.19;;;20.30;75.00
32486;BME280;18935;52.236;21.134;2022-08-19T05:46:25;99245.94;;;21.37;71.67
32486;BME280;18935;52.236;21.134;2022-08-19T05:48:51;99265.31;;;22.41;65.70
32486;BME280;18935;52.236;21.134;2022-08-19T05:51:16;99267.63;;;23.43;61.55
32486;BME280;18935;52.236;21.134;2022-08-19T05:53:42;99263.13;;;22.27;65.52
32486;BME280;18935;52.236;21.134;2022-08-19T05:56:12;99265.28;;;22.14;66.27
32486;BME280;18935;52.236;21.134;2022-08-19T05:58:38;99267.50;;;22.91;63.14
32486;BME280;18935;52.236;21.134;2022-08-19T06:01:09;99259.31;;;23.64;60.52
32486;BME280;18935;52.236;21.134;2022-08-19T06:03:35;99258.09;;;24.61;57.68
32486;BME280;18935;52.236;21.134;2022-08-19T06:06:03;99260.47;;;24.80;55.82
32486;BME280;18935;52.236;21.134;2022-08-19T06:08:36;99263.72;;;25.25;54.20
32486;BME280;18935;52.236;21.134;2022-08-19T06:13:41;99257.72;;;25.39;53.69
32486;BME280;18935;52.236;21.134;2022-08-19T06:16:06;99255.38;;;25.11;53.79
32486;BME280;18935;52.236;21.134;2022-08-19T06:18:31;99245.50;;;24.95;54.50
32486;BME280;18935;52.236;21.134;2022-08-19T06:20:58;99240.84;;;24.31;56.29
32486;BME280;18935;52.236;21.134;2022-08-19T06:23:23;99236.75;;;24.10;57.58
32486;BME280;18935;52.236;21.134;2022-08-19T06:25:48;99237.41;;;23.70;58.97
32486;BME280;18935;52.236;21.134;2022-08-19T06:28:14;99244.47;;;23.00;61.18
32486;BME280;18935;52.236;21.134;2022-08-19T06:30:39;99241.09;;;22.17;64.79
32486;BME280;18935;52.236;21.134;2022-08-19T06:33:04;99251.25;;;21.84;66.70
32486;BME280;18935;52.236;21.134;2022-08-19T06:35:30;99244.56;;;21.80;68.01
32486;BME280;18935;52.236;21.134;2022-08-19T06:37:55;99246.69;;;22.14;66.97
32486;BME280;18935;52.236;21.134;2022-08-19T06:40:21;99257.91;;;23.78;61.04
32486;BME280;18935;52.236;21.134;2022-08-19T06:42:47;99254.88;;;24.07;59.27
32486;BME280;18935;52.236;21.134;2022-08-19T06:45:12;99262.44;;;24.54;57.71
32486;BME280;18935;52.236;21.134;2022-08-19T06:47:37;99264.66;;;24.91;56.50
32486;BME280;18935;52.236;21.134;2022-08-19T06:50:03;99255.50;;;24.77;55.93
32486;BME280;18935;52.236;21.134;2022-08-19T06:52:33;99255.81;;;24.99;55.42
32486;BME280;18935;52.236;21.134;2022-08-19T06:55:00;99255.66;;;24.92;54.96
32486;BME280;18935;52.236;21.134;2022-08-19T06:57:26;99272.41;;;25.18;54.01
32486;BME280;18935;52.236;21.134;2022-08-19T06:59:52;99264.19;;;25.44;53.83
32486;BME280;18935;52.236;21.134;2022-08-19T07:02:18;99260.31;;;25.96;53.25
32486;BME280;18935;52.236;21.134;2022-08-19T07:04:45;99261.59;;;26.08;52.18
32486;BME280;18935;52.236;21.134;2022-08-19T07:07:13;99270.72;;;25.42;53.51
32486;BME280;18935;52.236;21.134;2022-08-19T07:09:42;99260.16;;;25.00;54.68
32486;BME280;18935;52.236;21.134;2022-08-19T07:12:09;99266.41;;;25.25;54.98
32486;BME280;18935;52.236;21.134;2022-08-19T07:14:37;99276.19;;;25.89;53.18
32486;BME280;18935;52.236;21.134;2022-08-19T07:17:05;99264.38;;;25.51;54.17
32486;BME280;18935;52.236;21.134;2022-08-19T07:19:31;99260.59;;;24.54;56.74
32486;BME280;18935;52.236;21.134;2022-08-19T07:21:57;99269.88;;;24.42;57.56
32486;BME280;18935;52.236;21.134;2022-08-19T07:24:26;99275.84;;;24.36;58.41
32486;BME280;18935;52.236;21.134;2022-08-19T07:26:55;99286.94;;;24.65;57.01
32486;BME280;18935;52.236;21.134;2022-08-19T07:29:21;99274.06;;;25.03;55.44
32486;BME280;18935;52.236;21.134;2022-08-19T07:31:51;99261.88;;;25.41;54.97
32486;BME280;18935;52.236;21.134;2022-08-19T07:34:17;99269.06;;;25.41;53.98
32486;BME280;18935;52.236;21.134;2022-08-19T07:36:43;99265.88;;;25.45;54.14
32486;BME280;18935;52.236;21.134;2022-08-19T07:39:12;99259.69;;;25.45;53.90
32486;BME280;18935;52.236;21.134;2022-08-19T07:41:38;99255.34;;;25.44;53.91
32486;BME280;18935;52.236;21.134;2022-08-19T07:44:05;99263.06;;;25.39;54.32
32486;BME280;18935;52.236;21.134;2022-08-19T07:46:34;99255.19;;;25.05;55.38
32486;BME280;18935;52.236;21.134;2022-08-19T07:48:59;99264.00;;;25.87;54.25
32486;BME280;18935;52.236;21.134;2022-08-19T07:51:26;99264.81;;;26.34;53.76
32486;BME280;18935;52.236;21.134;2022-08-19T07:53:52;99257.19;;;26.23;51.64
32486;BME280;18935;52.236;21.134;2022-08-19T07:56:18;99260.63;;;26.48;51.74
32486;BME280;18935;52.236;21.134;2022-08-19T07:58:46;99259.19;;;26.21;51.49
32486;BME280;18935;52.236;21.134;2022-08-19T08:01:17;99258.19;;;26.30;50.94
32486;BME280;18935;52.236;21.134;2022-08-19T08:03:43;99264.31;;;26.00;52.05
32486;BME280;18935;52.236;21.134;2022-08-19T08:06:27;99258.19;;;25.59;52.64
32486;BME280;18935;52.236;21.134;2022-08-19T08:09:11;99263.19;;;25.78;52.60
32486;BME280;18935;52.236;21.134;2022-08-19T08:11:39;99253.59;;;26.08;52.33
32486;BME280;18935;52.236;21.134;2022-08-19T08:14:04;99259.03;;;26.23;52.54
32486;BME280;18935;52.236;21.134;2022-08-19T08:16:37;99259.47;;;26.34;51.67
32486;BME280;18935;52.236;21.134;2022-08-19T08:19:06;99257.94;;;26.01;51.70
32486;BME280;18935;52.236;21.134;2022-08-19T08:21:32;99255.16;;;25.70;52.34
32486;BME280;18935;52.236;21.134;2022-08-19T08:23:57;99251.69;;;25.77;53.06
32486;BME280;18935;52.236;21.134;2022-08-19T08:26:23;99251.16;;;25.74;52.38
32486;BME280;18935;52.236;21.134;2022-08-19T08:28:50;99248.31;;;25.75;52.57
32486;BME280;18935;52.236;21.134;2022-08-19T08:31:15;99250.53;;;26.19;52.58
32486;BME280;18935;52.236;21.134;2022-08-19T08:33:41;99254.59;;;25.99;52.63
32486;BME280;18935;52.236;21.134;2022-08-19T08:36:08;99257.88;;;26.17;52.99
32486;BME280;18935;52.236;21.134;2022-08-19T08:38:33;99267.03;;;26.39;52.08
32486;BME280;18935;52.236;21.134;2022-08-19T08:41:09;99270.66;;;26.46;51.83
32486;BME280;18935;52.236;21.134;2022-08-19T08:43:45;99261.84;;;26.29;52.70
32486;BME280;18935;52.236;21.134;2022-08-19T08:51:24;99256.19;;;26.24;53.47
32486;BME280;18935;52.236;21.134;2022-08-19T08:53:52;99269.81;;;26.38;52.81
32486;BME280;18935;52.236;21.134;2022-08-19T08:56:18;99257.53;;;26.20;51.91
32486;BME280;18935;52.236;21.134;2022-08-19T08:58:57;99256.88;;;26.18;52.00
32486;BME280;18935;52.236;21.134;2022-08-19T09:01:23;99262.19;;;26.26;51.46
32486;BME280;18935;52.236;21.134;2022-08-19T09:03:49;99269.56;;;26.24;52.59
32486;BME280;18935;52.236;21.134;2022-08-19T09:06:40;99280.94;;;26.18;52.22
32486;BME280;18935;52.236;21.134;2022-08-19T09:09:14;99277.56;;;26.24;51.66
32486;BME280;18935;52.236;21.134;2022-08-19T09:11:47;99289.06;;;26.41;51.67
32486;BME280;18935;52.236;21.134;2022-08-19T09:17:09;99284.25;;;26.20;50.90
32486;BME280;18935;52.236;21.134;2022-08-19T09:19:50;99290.25;;;26.39;51.22
32486;BME280;18935;52.236;21.134;2022-08-19T09:22:16;99291.50;;;26.51;50.69
32486;BME280;18935;52.236;21.134;2022-08-19T09:24:41;99289.72;;;26.74;49.89
32486;BME280;18935;52.236;21.134;2022-08-19T09:27:06;99283.34;;;26.75;49.82
32486;BME280;18935;52.236;21.134;2022-08-19T09:29:31;99272.47;;;27.08;49.46
32486;BME280;18935;52.236;21.134;2022-08-19T09:31:57;99278.47;;;27.10;48.43
32486;BME280;18935;52.236;21.134;2022-08-19T09:34:22;99284.44;;;27.58;48.25
32486;BME280;18935;52.236;21.134;2022-08-19T09:36:48;99279.81;;;27.66;47.91
32486;BME280;18935;52.236;21.134;2022-08-19T09:39:17;99291.22;;;27.83;46.92
32486;BME280;18935;52.236;21.134;2022-08-19T09:41:43;99291.09;;;27.62;45.18
32486;BME280;18935;52.236;21.134;2022-08-19T09:44:08;99290.16;;;27.55;45.82
32486;BME280;18935;52.236;21.134;2022-08-19T09:46:33;99291.66;;;27.34;45.31
32486;BME280;18935;52.236;21.134;2022-08-19T09:49:00;99289.22;;;27.70;44.30
32486;BME280;18935;52.236;21.134;2022-08-19T09:51:26;99294.13;;;28.11;44.60
32486;BME280;18935;52.236;21.134;2022-08-19T09:53:54;99300.69;;;27.94;43.44
32486;BME280;18935;52.236;21.134;2022-08-19T09:56:21;99295.31;;;27.79;43.44
32486;BME280;18935;52.236;21.134;2022-08-19T09:58:47;99296.44;;;27.85;44.38
32486;BME280;18935;52.236;21.134;2022-08-19T10:01:19;99296.44;;;28.00;42.77
32486;BME280;18935;52.236;21.134;2022-08-19T10:03:48;99289.59;;;28.12;42.75
32486;BME280;18935;52.236;21.134;2022-08-19T10:06:14;99275.28;;;28.34;42.92
32486;BME280;18935;52.236;21.134;2022-08-19T10:08:39;99283.41;;;27.96;42.79
32486;BME280;18935;52.236;21.134;2022-08-19T10:11:05;99284.53;;;28.32;44.05
32486;BME280;18935;52.236;21.134;2022-08-19T10:13:31;99274.22;;;28.86;43.02
32486;BME280;18935;52.236;21.134;2022-08-19T10:16:04;99276.16;;;29.56;41.25
32486;BME280;18935;52.236;21.134;2022-08-19T10:18:31;99270.72;;;29.28;41.16
32486;BME280;18935;52.236;21.134;2022-08-19T10:23:32;99270.53;;;28.87;42.05
32486;BME280;18935;52.236;21.134;2022-08-19T10:26:00;99262.78;;;28.92;42.15
32486;BME280;18935;52.236;21.134;2022-08-19T10:28:25;99258.16;;;29.07;41.26
32486;BME280;18935;52.236;21.134;2022-08-19T10:30:50;99258.50;;;28.83;40.85
32486;BME280;18935;52.236;21.134;2022-08-19T10:33:16;99251.47;;;28.61;41.59
32486;BME280;18935;52.236;21.134;2022-08-19T10:35:41;99258.22;;;28.93;40.77
32486;BME280;18935;52.236;21.134;2022-08-19T10:38:06;99251.63;;;28.95;41.68
32486;BME280;18935;52.236;21.134;2022-08-19T10:40:31;99256.25;;;29.01;40.05
32486;BME280;18935;52.236;21.134;2022-08-19T10:42:57;99251.38;;;28.90;39.38
32486;BME280;18935;52.236;21.134;2022-08-19T10:45:23;99249.72;;;28.53;40.31
32486;BME280;18935;52.236;21.134;2022-08-19T10:47:50;99252.66;;;28.58;39.75
32486;BME280;18935;52.236;21.134;2022-08-19T10:50:15;99253.47;;;28.37;40.15
32486;BME280;18935;52.236;21.134;2022-08-19T10:53:04;99262.78;;;28.41;40.10
32486;BME280;18935;52.236;21.134;2022-08-19T10:55:30;99259.06;;;28.27;39.49
32486;BME280;18935;52.236;21.134;2022-08-19T10:58:17;99266.09;;;28.29;40.36
32486;BME280;18935;52.236;21.134;2022-08-19T11:00:43;99252.69;;;28.43;39.72
32486;BME280;18935;52.236;21.134;2022-08-19T11:03:15;99248.13;;;28.59;39.04
32486;BME280;18935;52.236;21.134;2022-08-19T11:05:40;99254.59;;;28.64;39.14
32486;BME280;18935;52.236;21.134;2022-08-19T11:08:07;99245.78;;;29.06;38.74
32486;BME280;18935;52.236;21.134;2022-08-19T11:10:36;99251.16;;;29.34;37.24
32486;BME280;18935;52.236;21.134;2022-08-19T11:13:01;99240.66;;;29.40;38.16
32486;BME280;18935;52.236;21.134;2022-08-19T11:15:28;99252.59;;;29.30;37.83
32486;BME280;18935;52.236;21.134;2022-08-19T11:17:53;99247.28;;;29.16;36.74
32486;BME280;18935;52.236;21.134;2022-08-19T11:20:19;99236.75;;;29.42;36.48
32486;BME280;18935;52.236;21.134;2022-08-19T11:22:45;99237.31;;;29.59;37.04
32486;BME280;18935;52.236;21.134;2022-08-19T11:25:11;99226.88;;;29.49;36.66
32486;BME280;18935;52.236;21.134;2022-08-19T11:27:42;99225.59;;;29.67;37.15
32486;BME280;18935;52.236;21.134;2022-08-19T11:30:10;99220.47;;;29.72;37.09
32486;BME280;18935;52.236;21.134;2022-08-19T11:32:36;99223.34;;;29.21;37.00
32486;BME280;18935;52.236;21.134;2022-08-19T11:35:01;99221.28;;;29.16;37.01
32486;BME280;18935;52.236;21.134;2022-08-19T11:37:26;99211.03;;;28.84;37.42
32486;BME280;18935;52.236;21.134;2022-08-19T11:39:52;99219.16;;;28.90;36.78
32486;BME280;18935;52.236;21.134;2022-08-19T11:42:17;99218.50;;;28.88;36.81
32486;BME280;18935;52.236;21.134;2022-08-19T11:45:01;99222.81;;;29.04;37.49
32486;BME280;18935;52.236;21.134;2022-08-19T11:47:29;99219.31;;;28.89;37.01
32486;BME280;18935;52.236;21.134;2022-08-19T11:49:55;99218.91;;;28.85;38.13
32486;BME280;18935;52.236;21.134;2022-08-19T11:52:21;99216.91;;;29.43;36.62
32486;BME280;18935;52.236;21.134;2022-08-19T11:54:46;99219.69;;;29.28;36.29
32486;BME280;18935;52.236;21.134;2022-08-19T11:57:11;99210.81;;;29.28;36.40
32486;BME280;18935;52.236;21.134;2022-08-19T11:59:37;99203.81;;;28.84;36.95
32486;BME280;18935;52.236;21.134;2022-08-19T12:02:02;99197.41;;;28.64;37.45
32486;BME280;18935;52.236;21.134;2022-08-19T12:04:28;99195.75;;;28.63;38.11
32486;BME280;18935;52.236;21.134;2022-08-19T12:06:53;99193.72;;;28.86;37.68
32486;BME280;18935;52.236;21.134;2022-08-19T12:09:21;99183.34;;;29.04;36.56
32486;BME280;18935;52.236;21.134;2022-08-19T12:11:47;99179.00;;;29.03;36.49
32486;BME280;18935;52.236;21.134;2022-08-19T12:14:13;99184.72;;;28.94;36.26
32486;BME280;18935;52.236;21.134;2022-08-19T12:16:39;99181.69;;;28.82;36.04
32486;BME280;18935;52.236;21.134;2022-08-19T12:19:04;99184.78;;;29.00;36.46
32486;BME280;18935;52.236;21.134;2022-08-19T12:21:32;99163.78;;;28.89;36.45
32486;BME280;18935;52.236;21.134;2022-08-19T12:23:59;99170.28;;;28.95;38.02
32486;BME280;18935;52.236;21.134;2022-08-19T12:26:26;99170.59;;;29.06;36.34
32486;BME280;18935;52.236;21.134;2022-08-19T12:28:52;99169.69;;;28.78;36.10
32486;BME280;18935;52.236;21.134;2022-08-19T12:31:18;99168.94;;;28.84;36.99
32486;BME280;18935;52.236;21.134;2022-08-19T12:33:45;99167.00;;;28.78;36.20
32486;BME280;18935;52.236;21.134;2022-08-19T12:36:12;99170.59;;;28.64;36.65
32486;BME280;18935;52.236;21.134;2022-08-19T12:38:39;99169.28;;;28.38;37.01
32486;BME280;18935;52.236;21.134;2022-08-19T12:41:05;99163.28;;;28.21;37.29
32486;BME280;18935;52.236;21.134;2022-08-19T12:43:31;99157.19;;;28.13;37.75
32486;BME280;18935;52.236;21.134;2022-08-19T12:45:57;99147.25;;;28.28;37.88
32486;BME280;18935;52.236;21.134;2022-08-19T12:48:22;99142.09;;;28.41;36.95
32486;BME280;18935;52.236;21.134;2022-08-19T12:50:48;99143.38;;;28.45;36.93
32486;BME280;18935;52.236;21.134;2022-08-19T12:53:15;99143.31;;;28.39;36.83
32486;BME280;18935;52.236;21.134;2022-08-19T12:55:41;99144.06;;;28.33;36.74
32486;BME280;18935;52.236;21.134;2022-08-19T12:58:09;99141.19;;;28.34;37.41
32486;BME280;18935;52.236;21.134;2022-08-19T13:00:35;99140.88;;;28.29;37.07